createdAt,value
2019-05-30T00:00:26.981Z,0.30
2019-05-30T00:02:56.839Z,0.30
2019-05-30T00:05:25.917Z,0.40
2019-05-30T00:07:54.622Z,0.30
2019-05-30T00:10:23.256Z,0.30
2019-05-30T00:12:51.746Z,0.30
2019-05-30T00:15:20.424Z,0.30
2019-05-30T00:17:49.060Z,0.40
2019-05-30T00:20:17.694Z,0.30
2019-05-30T00:22:46.236Z,0.40
2019-05-30T00:25:14.860Z,0.30
2019-05-30T00:27:43.572Z,0.30
2019-05-30T00:30:23.790Z,0.30
2019-05-30T00:32:42.391Z,0.30
2019-05-30T00:35:11.220Z,0.30
2019-05-30T00:37:39.891Z,0.30
2019-05-30T00:40:08.623Z,0.30
2019-05-30T00:42:37.347Z,0.30
2019-05-30T00:45:18.619Z,0.30
2019-05-30T00:47:37.212Z,0.30
2019-05-30T00:50:06.782Z,0.30
2019-05-30T00:52:35.487Z,0.30
2019-05-30T00:55:05.421Z,0.30
2019-05-30T00:57:33.920Z,0.30
2019-05-30T01:00:03.056Z,0.30
2019-05-30T01:02:31.776Z,0.30
2019-05-30T01:05:01.015Z,0.40
2019-05-30T01:07:29.588Z,0.30
2019-05-30T01:09:59.107Z,0.30
2019-05-30T01:12:27.828Z,0.28
2019-05-30T01:14:56.910Z,0.28
2019-05-30T01:17:25.471Z,0.30
2019-05-30T01:19:54.104Z,0.40
2019-05-30T01:22:22.771Z,0.30
2019-05-30T01:24:51.367Z,0.30
2019-05-30T01:27:19.914Z,0.40
2019-05-30T01:29:48.514Z,0.30
2019-05-30T01:32:29.119Z,0.30
2019-05-30T01:34:59.714Z,0.30
2019-05-30T01:37:28.504Z,0.30
2019-05-30T01:39:57.769Z,0.30
2019-05-30T01:42:26.436Z,0.30
2019-05-30T01:44:55.361Z,0.28
2019-05-30T01:47:23.996Z,0.30
2019-05-30T01:49:52.666Z,0.30
2019-05-30T01:52:21.394Z,0.30
2019-05-30T01:54:49.950Z,0.30
2019-05-30T01:57:18.592Z,0.30
2019-05-30T01:59:47.153Z,0.30
2019-05-30T02:02:15.903Z,0.40
2019-05-30T02:04:44.458Z,0.37
2019-05-30T02:07:13.089Z,0.30
2019-05-30T02:09:41.679Z,0.40
2019-05-30T02:12:10.270Z,0.30
2019-05-30T02:14:38.908Z,0.30
2019-05-30T02:17:07.864Z,0.30
2019-05-30T02:19:36.522Z,0.30
2019-05-30T02:22:05.824Z,0.30
2019-05-30T02:24:34.504Z,0.40
2019-05-30T02:27:04.179Z,0.40
2019-05-30T02:29:32.742Z,0.33
2019-05-30T02:32:02.956Z,0.40
2019-05-30T02:34:31.611Z,0.40
2019-05-30T02:37:01.158Z,0.40
2019-05-30T02:39:30.652Z,0.40
2019-05-30T02:42:00.815Z,0.40
2019-05-30T02:44:29.743Z,0.40
2019-05-30T02:46:58.328Z,0.30
2019-05-30T02:49:27.235Z,0.30
2019-05-30T02:51:56.029Z,0.40
2019-05-30T02:54:24.763Z,0.40
2019-05-30T02:56:53.310Z,0.40
2019-05-30T02:59:21.979Z,0.42
2019-05-30T03:02:00.957Z,0.40
2019-05-30T03:04:20.964Z,0.40
2019-05-30T03:06:49.639Z,0.50
2019-05-30T03:09:18.388Z,0.40
2019-05-30T03:11:47.295Z,0.40
2019-05-30T03:14:19.486Z,0.47
2019-05-30T03:16:46.278Z,0.47
2019-05-30T03:19:14.886Z,0.65
2019-05-30T03:21:43.570Z,0.60
2019-05-30T03:24:14.245Z,0.65
2019-05-30T03:26:42.637Z,0.50
2019-05-30T03:29:12.502Z,0.50
2019-05-30T03:31:43.783Z,0.80
2019-05-30T03:34:22.106Z,0.50
2019-05-30T03:36:42.782Z,0.90
2019-05-30T03:39:14.519Z,0.55
2019-05-30T03:41:42.005Z,0.40
2019-05-30T03:44:13.126Z,0.50
2019-05-30T03:46:43.939Z,0.53
2019-05-30T03:49:18.413Z,0.60
2019-05-30T03:51:49.303Z,0.60
2019-05-30T03:54:18.628Z,0.60
2019-05-30T03:56:55.906Z,0.60
2019-05-30T03:59:33.267Z,0.50
2019-05-30T04:02:15.556Z,0.85
2019-05-30T04:04:50.056Z,0.50
2019-05-30T04:07:21.616Z,0.70
2019-05-30T04:09:53.145Z,0.50
2019-05-30T04:12:28.103Z,0.50
2019-05-30T04:15:05.541Z,0.70
2019-05-30T04:17:34.067Z,0.60
2019-05-30T04:20:02.936Z,0.50
2019-05-30T04:22:31.585Z,0.40
2019-05-30T04:25:00.328Z,0.40
2019-05-30T04:27:28.822Z,0.78
2019-05-30T04:29:57.485Z,0.50
2019-05-30T04:32:26.249Z,0.60
2019-05-30T04:34:54.890Z,0.40
2019-05-30T04:37:23.477Z,0.40
2019-05-30T04:39:52.061Z,0.50
2019-05-30T04:42:20.931Z,0.30
2019-05-30T04:44:49.645Z,0.90
2019-05-30T04:47:18.505Z,0.53
2019-05-30T04:49:47.585Z,0.60
2019-05-30T04:52:20.408Z,0.30
2019-05-30T04:54:46.480Z,0.40
2019-05-30T04:57:16.865Z,0.50
2019-05-30T04:59:45.566Z,0.93
2019-05-30T05:02:15.761Z,0.40
2019-05-30T05:04:44.381Z,0.30
2019-05-30T05:07:13.582Z,0.28
2019-05-30T05:09:42.194Z,0.20
2019-05-30T05:12:12.017Z,0.70
2019-05-30T05:14:40.564Z,0.30
2019-05-30T05:17:09.242Z,0.37
2019-05-30T05:19:37.880Z,0.28
2019-05-30T05:22:06.514Z,0.35
2019-05-30T05:24:35.136Z,0.20
2019-05-30T05:27:03.702Z,0.30
2019-05-30T05:29:32.320Z,0.60
2019-05-30T05:32:01.053Z,0.40
2019-05-30T05:34:29.566Z,0.40
2019-05-30T05:36:58.132Z,0.20
2019-05-30T05:39:28.357Z,0.40
2019-05-30T05:41:57.041Z,0.30
2019-05-30T05:44:25.674Z,0.33
2019-05-30T05:46:54.271Z,0.30
2019-05-30T05:49:22.921Z,0.20
2019-05-30T05:51:51.553Z,0.30
2019-05-30T05:54:20.891Z,0.30
2019-05-30T05:56:49.495Z,0.30
2019-05-30T05:59:18.897Z,0.60
2019-05-30T06:01:47.614Z,0.30
2019-05-30T06:04:17.201Z,0.20
2019-05-30T06:06:45.817Z,0.30
2019-05-30T06:09:14.418Z,0.30
2019-05-30T06:11:42.918Z,0.20
2019-05-30T06:14:11.555Z,0.33
2019-05-30T06:16:42.936Z,0.37
2019-05-30T06:19:11.491Z,0.13
2019-05-30T06:21:52.945Z,0.50
2019-05-30T06:24:10.436Z,0.30
2019-05-30T06:26:39.081Z,0.28
2019-05-30T06:29:07.713Z,0.82
2019-05-30T06:31:36.250Z,0.30
2019-05-30T06:34:04.900Z,0.20
2019-05-30T06:36:33.550Z,0.68
2019-05-30T06:39:02.148Z,0.25
2019-05-30T06:41:30.640Z,0.20
2019-05-30T06:43:59.209Z,0.20
2019-05-30T06:46:28.374Z,0.25
2019-05-30T06:48:58.655Z,0.10
2019-05-30T06:51:29.117Z,0.30
2019-05-30T06:53:57.794Z,0.20
2019-05-30T06:56:31.481Z,0.17
2019-05-30T06:59:00.086Z,0.20
2019-05-30T07:01:30.004Z,0.20
2019-05-30T07:03:58.902Z,0.20
2019-05-30T07:06:29.295Z,0.20
2019-05-30T07:08:58.263Z,0.20
2019-05-30T07:11:26.895Z,0.20
2019-05-30T07:13:55.456Z,0.20
2019-05-30T07:16:25.268Z,0.20
2019-05-30T07:18:53.942Z,0.20
2019-05-30T07:21:23.562Z,0.20
2019-05-30T07:23:52.214Z,0.20
2019-05-30T07:26:20.668Z,0.30
2019-05-30T07:28:49.329Z,0.20
2019-05-30T07:31:17.967Z,0.28
2019-05-30T07:33:46.543Z,0.30
2019-05-30T07:36:15.116Z,0.30
2019-05-30T07:38:43.687Z,0.30
2019-05-30T07:41:12.441Z,0.10
2019-05-30T07:43:40.993Z,0.40
2019-05-30T07:46:09.494Z,0.30
2019-05-30T07:48:38.609Z,0.20
2019-05-30T07:51:07.327Z,0.20
2019-05-30T07:53:35.882Z,0.20
2019-05-30T07:56:05.241Z,0.20
2019-05-30T07:58:33.790Z,0.25
2019-05-30T08:01:02.436Z,0.20
2019-05-30T08:03:31.033Z,0.20
2019-05-30T08:05:59.694Z,0.20
2019-05-30T08:08:28.281Z,0.40
2019-05-30T08:11:08.959Z,0.25
2019-05-30T08:13:27.181Z,0.30
2019-05-30T08:15:55.811Z,0.55
2019-05-30T08:18:24.445Z,0.40
2019-05-30T08:20:52.980Z,0.30
2019-05-30T08:23:21.552Z,0.40
2019-05-30T08:25:50.176Z,0.30
2019-05-30T08:28:18.859Z,0.40
2019-05-30T08:30:47.418Z,0.40
2019-05-30T08:33:16.068Z,0.30
2019-05-30T08:35:49.880Z,0.40
2019-05-30T08:38:15.021Z,0.30
2019-05-30T08:40:43.594Z,0.50
2019-05-30T08:43:12.263Z,0.20
2019-05-30T08:45:40.902Z,0.10
2019-05-30T08:48:09.526Z,0.10
2019-05-30T08:50:42.798Z,0.10
2019-05-30T08:53:08.434Z,0.30
2019-05-30T08:55:37.023Z,0.20
2019-05-30T08:58:05.688Z,0.10
2019-05-30T09:00:34.322Z,0.50
2019-05-30T09:03:03.112Z,0.20
2019-05-30T09:05:31.867Z,0.10
2019-05-30T09:08:00.402Z,0.20
2019-05-30T09:10:29.114Z,0.75
2019-05-30T09:12:57.747Z,0.35
2019-05-30T09:15:26.457Z,0.20
2019-05-30T09:17:55.097Z,0.20
2019-05-30T09:20:23.743Z,0.10
2019-05-30T09:22:52.379Z,0.40
2019-05-30T09:25:21.562Z,0.30
2019-05-30T09:27:50.123Z,0.20
2019-05-30T09:30:20.403Z,0.50
2019-05-30T09:32:49.070Z,0.20
2019-05-30T09:35:18.317Z,0.20
2019-05-30T09:37:47.802Z,0.35
2019-05-30T09:40:17.298Z,0.40
2019-05-30T09:42:46.959Z,0.30
2019-05-30T09:45:18.034Z,0.20
2019-05-30T09:47:47.188Z,0.40
2019-05-30T09:50:18.088Z,0.50
2019-05-30T09:52:47.143Z,0.30
2019-05-30T09:55:17.608Z,0.40
2019-05-30T09:57:47.439Z,0.30
2019-05-30T10:00:18.663Z,0.17
2019-05-30T10:02:48.625Z,0.20
2019-05-30T10:05:17.945Z,0.20
2019-05-30T10:07:47.451Z,0.20
2019-05-30T10:10:17.154Z,0.20
2019-05-30T10:12:46.957Z,0.30
2019-05-30T10:15:16.304Z,0.20
2019-05-30T10:17:46.301Z,0.20
2019-05-30T10:20:15.553Z,0.28
2019-05-30T10:22:44.749Z,0.50
2019-05-30T10:25:15.793Z,0.40
2019-05-30T10:27:46.254Z,0.20
2019-05-30T10:30:15.168Z,0.20
2019-05-30T10:32:43.802Z,0.20
2019-05-30T10:35:12.930Z,0.30
2019-05-30T10:37:41.494Z,0.30
2019-05-30T10:40:12.037Z,0.20
2019-05-30T10:42:40.617Z,0.28
2019-05-30T10:45:11.363Z,0.30
2019-05-30T10:47:39.951Z,0.20
2019-05-30T10:50:09.480Z,0.20
2019-05-30T10:52:38.110Z,0.30
2019-05-30T10:55:08.979Z,0.20
2019-05-30T10:57:37.626Z,0.20
2019-05-30T11:00:10.536Z,0.20
2019-05-30T11:02:39.722Z,0.20
2019-05-30T11:05:09.993Z,0.10
2019-05-30T11:08:01.233Z,0.20
2019-05-30T11:10:42.935Z,0.20
2019-05-30T11:13:14.613Z,0.15
2019-05-30T11:15:43.553Z,0.20
2019-05-30T11:18:12.266Z,0.20
2019-05-30T11:20:41.143Z,0.20
2019-05-30T11:23:09.787Z,0.20
2019-05-30T11:25:38.419Z,0.20
2019-05-30T11:28:07.590Z,0.20
2019-05-30T11:30:36.335Z,0.25
2019-05-30T11:33:05.569Z,0.20
2019-05-30T11:35:34.336Z,0.30
2019-05-30T11:38:03.043Z,0.20
2019-05-30T11:40:31.702Z,0.30
2019-05-30T11:43:00.254Z,0.30
2019-05-30T11:45:28.897Z,0.20
2019-05-30T11:47:58.084Z,0.20
2019-05-30T11:50:26.974Z,0.28
2019-05-30T11:52:55.842Z,0.30
2019-05-30T11:55:24.497Z,0.20
2019-05-30T11:57:54.659Z,0.30
2019-05-30T12:00:24.289Z,0.20
2019-05-30T12:02:52.849Z,0.30
2019-05-30T12:05:21.847Z,0.40
2019-05-30T12:07:50.761Z,0.30
2019-05-30T12:10:19.794Z,0.40
2019-05-30T12:12:48.473Z,0.40
2019-05-30T12:15:17.772Z,0.37
2019-05-30T12:17:46.407Z,0.20
2019-05-30T12:20:15.485Z,0.25
2019-05-30T12:22:44.118Z,0.30
2019-05-30T12:25:13.652Z,0.30
2019-05-30T12:27:42.276Z,0.20
2019-05-30T12:30:11.726Z,0.20
2019-05-30T12:32:40.360Z,0.20
2019-05-30T12:35:09.696Z,0.20
2019-05-30T12:37:53.264Z,0.20
2019-05-30T12:40:09.868Z,0.20
2019-05-30T12:42:38.653Z,0.30
2019-05-30T12:45:08.683Z,0.20
2019-05-30T12:47:37.183Z,0.30
2019-05-30T12:50:10.772Z,0.30
2019-05-30T12:52:39.418Z,0.30
2019-05-30T12:55:10.246Z,0.30
2019-05-30T12:57:38.923Z,0.30
2019-05-30T13:00:18.065Z,0.30
2019-05-30T13:02:40.457Z,0.30
2019-05-30T13:05:10.136Z,0.37
2019-05-30T13:07:38.634Z,0.30
2019-05-30T13:10:08.486Z,0.30
2019-05-30T13:12:37.161Z,0.20
2019-05-30T13:15:07.086Z,0.40
2019-05-30T13:17:35.744Z,0.30
2019-05-30T13:20:07.782Z,0.30
2019-05-30T13:22:36.436Z,0.37
2019-05-30T13:25:08.837Z,0.30
2019-05-30T13:27:37.511Z,0.30
2019-05-30T13:30:07.870Z,0.30
2019-05-30T13:32:36.431Z,0.30
2019-05-30T13:35:07.516Z,0.30
2019-05-30T13:37:36.388Z,0.55
2019-05-30T13:40:24.200Z,0.40
2019-05-30T13:42:40.915Z,0.20
2019-05-30T13:45:10.904Z,0.30
2019-05-30T13:47:39.645Z,0.20
2019-05-30T13:50:13.375Z,0.30
2019-05-30T13:52:41.046Z,0.20
2019-05-30T13:55:11.682Z,0.40
2019-05-30T13:57:40.370Z,0.30
2019-05-30T14:00:10.744Z,0.30
2019-05-30T14:02:40.092Z,0.30
2019-05-30T14:05:10.322Z,0.30
2019-05-30T14:07:39.254Z,0.30
2019-05-30T14:10:08.800Z,0.20
2019-05-30T14:12:37.515Z,0.30
2019-05-30T14:15:10.597Z,0.20
2019-05-30T14:17:38.515Z,0.30
2019-05-30T14:20:09.098Z,0.50
2019-05-30T14:22:37.634Z,0.40
2019-05-30T14:25:09.655Z,0.23
2019-05-30T14:27:38.716Z,0.30
2019-05-30T14:30:08.940Z,0.20
2019-05-30T14:32:37.793Z,0.30
2019-05-30T14:35:11.812Z,0.30
2019-05-30T14:37:40.305Z,0.20
2019-05-30T14:40:11.081Z,0.20
2019-05-30T14:42:39.903Z,0.30
2019-05-30T14:45:10.394Z,0.30
2019-05-30T14:47:39.259Z,0.30
2019-05-30T14:50:09.152Z,0.30
2019-05-30T14:52:37.783Z,0.20
2019-05-30T14:55:09.023Z,0.30
2019-05-30T14:57:38.092Z,0.20
2019-05-30T15:00:09.362Z,0.30
2019-05-30T15:02:38.017Z,0.42
2019-05-30T15:05:07.591Z,0.20
2019-05-30T15:07:36.182Z,0.20
2019-05-30T15:10:07.065Z,0.80
2019-05-30T15:12:36.014Z,0.30
2019-05-30T15:15:07.898Z,0.40
2019-05-30T15:17:36.500Z,0.30
2019-05-30T15:20:07.499Z,0.40
2019-05-30T15:22:36.198Z,0.40
2019-05-30T15:25:05.769Z,0.40
2019-05-30T15:27:34.433Z,0.30
2019-05-30T15:30:03.201Z,0.30
2019-05-30T15:32:31.841Z,0.40
2019-05-30T15:35:00.530Z,0.35
2019-05-30T15:37:29.175Z,0.30
2019-05-30T15:39:57.682Z,0.20
2019-05-30T15:42:26.351Z,0.30
2019-05-30T15:44:55.079Z,0.23
2019-05-30T15:47:23.577Z,0.30
2019-05-30T15:49:52.613Z,0.30
2019-05-30T15:52:21.208Z,0.57
2019-05-30T15:54:49.937Z,0.40
2019-05-30T15:57:19.623Z,0.20
2019-05-30T15:59:48.184Z,0.30
2019-05-30T16:02:16.826Z,0.60
2019-05-30T16:04:45.387Z,0.30
2019-05-30T16:07:14.625Z,0.40
2019-05-30T16:09:47.166Z,0.30
2019-05-30T16:12:13.630Z,0.30
2019-05-30T16:14:42.189Z,0.40
2019-05-30T16:17:11.782Z,0.62
2019-05-30T16:19:40.509Z,0.80
2019-05-30T16:22:09.256Z,0.40
2019-05-30T16:24:37.770Z,0.40
2019-05-30T16:27:06.512Z,0.47
2019-05-30T16:29:35.197Z,0.40
2019-05-30T16:32:03.942Z,0.50
2019-05-30T16:34:32.978Z,0.50
2019-05-30T16:37:01.602Z,0.30
2019-05-30T16:39:30.247Z,0.40
2019-05-30T16:41:58.923Z,0.37
2019-05-30T16:44:27.561Z,0.60
2019-05-30T16:46:56.057Z,0.40
2019-05-30T16:49:24.679Z,0.30
2019-05-30T16:51:53.349Z,0.37
2019-05-30T16:54:21.926Z,0.40
2019-05-30T16:56:50.531Z,0.40
2019-05-30T16:59:19.040Z,0.42
2019-05-30T17:01:57.277Z,0.35
2019-05-30T17:04:18.879Z,0.50
2019-05-30T17:06:47.407Z,0.33
2019-05-30T17:09:17.112Z,0.40
2019-05-30T17:11:45.898Z,0.50
2019-05-30T17:14:15.621Z,0.53
2019-05-30T17:16:44.176Z,0.45
2019-05-30T17:19:12.840Z,0.40
2019-05-30T17:21:41.493Z,0.50
2019-05-30T17:24:09.997Z,0.40
2019-05-30T17:26:38.625Z,0.47
2019-05-30T17:29:07.271Z,0.60
2019-05-30T17:31:35.779Z,0.50
2019-05-30T17:34:04.406Z,0.40
2019-05-30T17:36:33.028Z,0.50
2019-05-30T17:39:01.793Z,0.70
2019-05-30T17:41:30.324Z,0.50
2019-05-30T17:43:58.912Z,0.50
2019-05-30T17:46:27.545Z,0.53
2019-05-30T17:48:56.311Z,0.50
2019-05-30T17:51:25.885Z,0.50
2019-05-30T17:53:54.526Z,0.40
2019-05-30T17:56:23.978Z,0.50
2019-05-30T17:58:52.608Z,0.70
2019-05-30T18:01:22.236Z,0.50
2019-05-30T18:03:50.792Z,0.72
2019-05-30T18:06:20.415Z,0.80
2019-05-30T18:08:49.037Z,0.60
2019-05-30T18:11:17.657Z,1.80
2019-05-30T18:13:46.289Z,0.80
2019-05-30T18:16:14.873Z,1.20
2019-05-30T18:18:43.533Z,0.80
2019-05-30T18:21:12.107Z,0.90
2019-05-30T18:23:40.671Z,0.70
2019-05-30T18:26:09.397Z,0.60
2019-05-30T18:28:38.100Z,0.50
2019-05-30T18:31:06.677Z,0.68
2019-05-30T18:33:35.283Z,0.90
2019-05-30T18:36:03.951Z,0.60
2019-05-30T18:38:32.746Z,0.53
2019-05-30T18:41:10.757Z,0.60
2019-05-30T18:43:32.909Z,0.60
2019-05-30T18:46:01.591Z,1.80
2019-05-30T18:48:31.535Z,2.25
2019-05-30T18:51:00.147Z,0.75
2019-05-30T18:53:28.792Z,0.50
2019-05-30T18:55:57.444Z,0.60
2019-05-30T18:58:26.799Z,0.40
2019-05-30T19:00:55.498Z,0.40
2019-05-30T19:03:24.503Z,1.45
2019-05-30T19:05:53.025Z,1.02
2019-05-30T19:08:21.632Z,0.50
2019-05-30T19:10:50.284Z,0.50
2019-05-30T19:13:18.922Z,0.60
2019-05-30T19:15:47.601Z,0.60
2019-05-30T19:18:16.103Z,0.50
2019-05-30T19:20:44.744Z,0.50
2019-05-30T19:23:13.344Z,0.93
2019-05-30T19:25:42.500Z,0.70
2019-05-30T19:28:11.130Z,0.50
2019-05-30T19:30:41.194Z,0.40
2019-05-30T19:33:09.927Z,0.50
2019-05-30T19:35:38.558Z,0.53
2019-05-30T19:38:07.267Z,0.42
2019-05-30T19:40:35.918Z,0.57
2019-05-30T19:43:04.863Z,0.60
2019-05-30T19:45:34.113Z,0.55
2019-05-30T19:48:02.872Z,0.50
2019-05-30T19:50:32.534Z,0.50
2019-05-30T19:53:01.184Z,0.50
2019-05-30T19:55:31.021Z,0.70
2019-05-30T19:57:59.834Z,0.60
2019-05-30T20:00:29.889Z,0.80
2019-05-30T20:02:58.521Z,0.70
2019-05-30T20:05:27.053Z,0.60
2019-05-30T20:07:55.682Z,0.70
2019-05-30T20:10:24.329Z,1.00
2019-05-30T20:12:52.995Z,0.50
2019-05-30T20:15:22.536Z,0.72
2019-05-30T20:17:51.102Z,0.60
2019-05-30T20:20:19.924Z,1.10
2019-05-30T20:22:48.567Z,0.50
2019-05-30T20:25:17.296Z,0.53
2019-05-30T20:27:45.919Z,0.75
2019-05-30T20:30:15.553Z,0.50
2019-05-30T20:32:44.216Z,0.40
2019-05-30T20:35:13.147Z,0.50
2019-05-30T20:37:42.824Z,0.65
2019-05-30T20:40:13.062Z,0.60
2019-05-30T20:42:42.949Z,0.50
2019-05-30T20:45:12.132Z,0.50
2019-05-30T20:47:42.637Z,0.80
2019-05-30T20:50:14.939Z,0.60
2019-05-30T20:52:45.278Z,0.82
2019-05-30T20:55:12.809Z,0.50
2019-05-30T20:57:42.567Z,0.65
2019-05-30T21:00:12.682Z,0.70
2019-05-30T21:02:41.198Z,0.50
2019-05-30T21:05:11.099Z,0.60
2019-05-30T21:07:41.913Z,0.70
2019-05-30T21:10:11.163Z,1.35
2019-05-30T21:12:44.380Z,0.65
2019-05-30T21:15:11.899Z,0.75
2019-05-30T21:17:43.758Z,0.65
2019-05-30T21:20:12.849Z,0.72
2019-05-30T21:22:42.299Z,0.60
2019-05-30T21:25:10.993Z,0.70
2019-05-30T21:27:40.784Z,0.72
2019-05-30T21:30:09.595Z,0.60
2019-05-30T21:32:39.687Z,0.60
2019-05-30T21:35:08.800Z,0.70
2019-05-30T21:37:37.712Z,0.68
2019-05-30T21:40:09.661Z,0.78
2019-05-30T21:42:55.651Z,0.80
2019-05-30T21:45:09.196Z,0.80
2019-05-30T21:47:38.690Z,0.70
2019-05-30T21:50:09.310Z,0.80
2019-05-30T21:52:39.283Z,1.00
2019-05-30T21:55:08.158Z,0.82
2019-05-30T21:57:36.840Z,1.00
2019-05-30T22:00:11.450Z,1.07
2019-05-30T22:02:40.670Z,1.65
2019-05-30T22:05:09.663Z,2.75
2019-05-30T22:07:38.301Z,4.72
2019-05-30T22:10:07.099Z,3.80
2019-05-30T22:12:35.639Z,3.70
2019-05-30T22:15:05.993Z,3.72
2019-05-30T22:17:34.639Z,2.80
2019-05-30T22:20:04.112Z,1.90
2019-05-30T22:22:32.641Z,2.72
2019-05-30T22:25:01.281Z,2.58
2019-05-30T22:27:29.959Z,2.25
2019-05-30T22:29:58.454Z,2.20
2019-05-30T22:32:27.083Z,2.67
2019-05-30T22:34:55.760Z,2.50
2019-05-30T22:37:24.393Z,2.77
2019-05-30T22:39:53.082Z,2.33
2019-05-30T22:42:21.858Z,2.55
2019-05-30T22:44:50.356Z,2.27
2019-05-30T22:47:18.860Z,3.50
2019-05-30T22:49:48.693Z,2.55
2019-05-30T22:52:17.348Z,3.05
2019-05-30T22:54:47.024Z,3.12
2019-05-30T22:57:15.660Z,2.98
2019-05-30T22:59:44.684Z,4.30
2019-05-30T23:02:13.404Z,2.72
2019-05-30T23:04:42.075Z,2.60
2019-05-30T23:07:10.572Z,3.27
2019-05-30T23:09:39.311Z,3.52
2019-05-30T23:12:07.997Z,4.28
2019-05-30T23:14:36.493Z,4.90
2019-05-30T23:17:05.142Z,5.12
2019-05-30T23:19:33.816Z,4.95
2019-05-30T23:22:02.461Z,4.78
2019-05-30T23:24:30.949Z,4.10
2019-05-30T23:26:59.482Z,4.30
2019-05-30T23:29:28.051Z,4.28
2019-05-30T23:31:56.686Z,4.50
2019-05-30T23:34:25.235Z,4.65
2019-05-30T23:36:54.551Z,4.17
2019-05-30T23:39:23.260Z,4.75
2019-05-30T23:41:52.952Z,4.58
2019-05-30T23:44:21.503Z,4.95
2019-05-30T23:46:51.349Z,4.97
2019-05-30T23:49:20.295Z,4.45
2019-05-30T23:51:49.895Z,4.70
2019-05-30T23:54:18.680Z,4.37
2019-05-30T23:56:47.230Z,5.30
2019-05-30T23:59:15.863Z,4.80
